Time;durP1;ratioP1;P1;durP2;ratioP2;P2;SDS_P1;SDS_P2;PMS_P1;PMS_P2;Temp;Humidity;BMP_temperature;BMP_pressure;BME280_temperature;BME280_humidity;BME280_pressure;Samples;Min_cycle;Max_cycle;Signal;HPM_P1;HPM_P2
2023/05/26 09:23:22;;;;;;;1.80;1.20;;;;;;;26.32;33.75;100277.45;104378;1305;545160;-74
2023/05/26 09:25:51;;;;;;;0.80;0.80;;;;;;;26.43;33.18;100281.15;106331;1282;137206;-71
2023/05/26 09:28:20;;;;;;;2.00;1.50;;;;;;;26.52;32.89;100269.43;106346;1287;138827;-69
2023/05/26 09:30:48;;;;;;;1.30;1.20;;;;;;;26.54;33.05;100271.91;106814;1266;22526;-73
2023/05/26 09:33:17;;;;;;;2.70;0.90;;;;;;;26.54;33.09;100273.23;106481;1279;138536;-72
2023/05/26 09:35:47;;;;;;;1.40;1.20;;;;;;;26.57;33.00;100267.27;106660;1276;22615;-75
2023/05/26 09:38:17;;;;;;;4.20;1.20;;;;;;;26.60;32.91;100258.55;109730;1273;147676;-76
2023/05/26 09:40:49;;;;;;;1.50;1.40;;;;;;;26.65;32.53;100258.34;109754;1273;140175;-76
2023/05/26 09:43:20;;;;;;;1.40;1.10;;;;;;;26.73;32.34;100249.02;109738;1267;22352;-75
2023/05/26 09:45:47;;;;;;;3.90;1.10;;;;;;;26.84;32.02;100242.33;109801;1273;139682;-75
2023/05/26 09:48:14;;;;;;;1.40;0.90;;;;;;;26.92;32.28;100242.34;109757;1273;137549;-73
2023/05/26 09:50:42;;;;;;;1.70;1.00;;;;;;;26.99;31.76;100230.30;109880;1261;22321;-71
2023/05/26 09:53:10;;;;;;;1.80;0.70;;;;;;;27.07;31.49;100230.50;109706;1272;137995;-74
2023/05/26 09:55:40;;;;;;;3.20;1.10;;;;;;;27.17;31.85;100227.74;109902;1273;22395;-74
2023/05/26 09:58:12;;;;;;;1.70;1.00;;;;;;;27.31;31.02;100220.05;109957;1270;137317;-77
2023/05/26 10:00:42;;;;;;;6.40;1.30;;;;;;;27.38;30.71;100224.46;109826;1270;138685;-75
2023/05/26 10:03:11;;;;;;;1.10;1.00;;;;;;;27.32;31.66;100225.67;110065;1270;23113;-79
2023/05/26 10:05:45;;;;;;;1.10;0.90;;;;;;;27.14;31.94;100212.91;109892;1273;139059;-76
2023/05/26 10:08:17;;;;;;;1.10;1.00;;;;;;;27.01;31.95;100220.05;110034;1270;137680;-78
2023/05/26 10:10:46;;;;;;;2.90;1.30;;;;;;;26.92;31.97;100219.50;110011;1272;23263;-79
2023/05/26 10:13:15;;;;;;;2.70;0.90;;;;;;;26.91;32.20;100216.50;109900;1270;137010;-79
2023/05/26 10:15:44;;;;;;;1.10;0.70;;;;;;;26.96;31.74;100201.85;109927;1270;22295;-78
2023/05/26 10:18:11;;;;;;;4.10;3.90;;;;;;;27.09;31.45;100207.37;109941;1272;138447;-78
2023/05/26 10:20:44;;;;;;;4.60;1.20;;;;;;;27.12;31.74;100199.55;110093;1270;137533;-76
2023/05/26 10:23:20;;;;;;;1.10;0.90;;;;;;;27.10;31.44;100199.70;110244;1268;22310;-79
2023/05/26 10:26:07;;;;;;;2.70;1.00;;;;;;;27.05;31.42;100207.11;109783;1269;138402;-80
2023/05/26 10:28:46;;;;;;;2.80;1.20;;;;;;;26.97;31.48;100213.00;110158;1263;138033;-79
2023/05/26 10:31:28;;;;;;;8.70;1.20;;;;;;;26.83;31.71;100212.20;110273;1269;23155;-78
2023/05/26 10:33:57;;;;;;;2.80;2.20;;;;;;;26.74;31.71;100214.11;109988;1270;137543;-79
2023/05/26 10:36:25;;;;;;;1.70;1.60;;;;;;;26.66;31.51;100219.05;109970;1270;137544;-77
2023/05/26 10:38:55;;;;;;;2.00;1.00;;;;;;;26.58;31.66;100218.40;109930;1270;22364;-78
2023/05/26 10:41:36;;;;;;;6.80;1.20;;;;;;;26.42;31.79;100212.30;109818;1270;137404;-76
2023/05/26 10:44:04;;;;;;;1.70;1.10;;;;;;;26.31;32.23;100205.60;109862;1272;138128;-77
2023/05/26 10:46:43;;;;;;;4.40;1.80;;;;;;;26.31;32.54;100215.27;110121;1270;22295;-76
2023/05/26 10:49:23;;;;;;;3.90;1.50;;;;;;;26.31;32.48;100218.55;109836;1257;137734;-76
2023/05/26 10:51:55;;;;;;;2.30;0.90;;;;;;;26.30;32.32;100219.83;110067;1270;24512;-76
2023/05/26 10:54:24;;;;;;;1.40;1.30;;;;;;;26.31;32.16;100217.14;109772;1269;137187;-76
2023/05/26 10:56:53;;;;;;;1.30;1.00;;;;;;;26.35;32.03;100215.21;109855;1257;137899;-78
2023/05/26 10:59:32;;;;;;;2.80;0.80;;;;;;;26.39;32.03;100215.96;109910;1262;22357;-76
2023/05/26 11:02:03;;;;;;;2.20;1.40;;;;;;;26.39;31.79;100213.17;109802;1270;137059;-77
2023/05/26 11:04:45;;;;;;;4.10;1.20;;;;;;;26.38;31.59;100211.28;109867;1272;137615;-75
2023/05/26 11:07:21;;;;;;;1.10;1.10;;;;;;;26.43;31.67;100209.52;110130;1270;22336;-77
2023/05/26 11:09:56;;;;;;;;;;;;;;;26.47;31.48;100210.10;109788;1262;137119;-77
2023/05/26 11:12:31;;;;;;;3.70;1.10;;;;;;;26.43;31.34;100214.27;109821;1270;123226;-76
2023/05/26 11:14:59;;;;;;;1.30;1.00;;;;;;;26.34;30.55;100214.08;110065;1270;22397;-77
2023/05/26 11:17:28;;;;;;;2.10;1.20;;;;;;;26.34;29.88;100214.78;109820;1270;138768;-76
2023/05/26 11:19:58;;;;;;;3.70;1.00;;;;;;;26.41;29.73;100214.63;109939;1262;23755;-76
2023/05/26 11:22:26;;;;;;;1.10;0.90;;;;;;;26.46;29.41;100213.50;109902;1272;136713;-78
2023/05/26 11:24:54;;;;;;;2.00;1.10;;;;;;;26.46;29.45;100207.77;109958;1260;139126;-79
2023/05/26 11:27:25;;;;;;;4.70;1.10;;;;;;;26.42;29.64;100198.15;109948;1270;22152;-78
2023/05/26 11:29:59;;;;;;;1.70;0.70;;;;;;;26.46;29.59;100197.16;109913;1270;136329;-73
2023/05/26 11:32:27;;;;;;;1.30;0.70;;;;;;;26.56;29.71;100199.63;110005;1257;137276;-80
2023/05/26 11:34:56;;;;;;;2.70;1.00;;;;;;;26.60;29.70;100203.58;109924;1270;22338;-77
2023/05/26 11:37:25;;;;;;;2.60;0.80;;;;;;;26.60;29.13;100200.73;109962;1270;137154;-79
2023/05/26 11:39:53;;;;;;;0.90;0.70;;;;;;;26.57;28.89;100201.40;110119;1270;22337;-76
2023/05/26 11:42:21;;;;;;;3.30;1.00;;;;;;;26.56;29.07;100199.45;110022;1270;137761;-75
2023/05/26 11:44:48;;;;;;;2.60;1.10;;;;;;;26.48;28.92;100189.76;109981;1270;138563;-76
2023/05/26 11:47:21;;;;;;;2.20;1.30;;;;;;;26.52;28.93;100193.07;110049;1270;23244;-78
2023/05/26 11:49:48;;;;;;;2.60;0.90;;;;;;;26.59;28.27;100194.83;109839;1270;137924;-74
2023/05/26 11:52:16;;;;;;;1.70;1.00;;;;;;;26.69;28.08;100187.25;109860;1270;137441;-76
2023/05/26 11:54:44;;;;;;;5.10;1.10;;;;;;;26.80;28.63;100185.03;110110;1270;22368;-77
2023/05/26 11:57:25;;;;;;;0.90;0.80;;;;;;;26.94;28.68;100185.21;109988;1270;138077;-79
2023/05/26 11:59:52;;;;;;;1.60;1.30;;;;;;;27.08;28.94;100173.52;110235;1269;22356;-77
2023/05/26 12:02:20;;;;;;;3.30;1.20;;;;;;;27.18;28.89;100172.83;109943;1270;137363;-74
2023/05/26 12:04:48;;;;;;;2.80;1.10;;;;;;;27.21;28.73;100167.21;109958;1270;139883;-73
2023/05/26 12:07:30;;;;;;;0.80;0.80;;;;;;;27.17;27.88;100172.19;110135;1269;22489;-75
2023/05/26 12:10:05;;;;;;;1.60;0.90;;;;;;;27.09;27.53;100169.08;109805;1270;138351;-71
2023/05/26 12:12:51;;;;;;;1.60;1.30;;;;;;;27.00;27.71;100164.65;110113;1269;142011;-73
2023/05/26 12:15:20;;;;;;;;;;;;;;;26.90;26.93;100166.25;110125;1270;22403;-74
2023/05/26 12:21:10;;;;;;;0.60;0.60;;;;;;;26.64;27.60;100165.29;103006;1307;545460;-73
2023/05/26 12:23:37;;;;;;;0.80;0.80;;;;;;;26.58;28.09;100154.88;105731;1279;24255;-74
2023/05/26 12:26:27;;;;;;;1.20;1.10;;;;;;;26.53;27.92;100146.88;105733;1283;137067;-78
2023/05/26 12:29:17;;;;;;;1.10;0.60;;;;;;;26.47;28.14;100148.83;105751;1276;137871;-79
2023/05/26 12:31:52;;;;;;;3.10;1.00;;;;;;;26.33;28.58;100129.66;105828;1283;25405;-75
2023/05/26 12:34:20;;;;;;;4.00;1.30;;;;;;;26.41;28.97;100142.27;105841;1271;241404;-80
2023/05/26 12:36:48;;;;;;;1.60;1.50;;;;;;;26.43;29.16;100137.70;105977;1280;139343;-75
2023/05/26 12:39:16;;;;;;;1.40;1.10;;;;;;;26.45;29.38;100136.95;106675;1273;22542;-71
2023/05/26 12:41:45;;;;;;;1.80;1.50;;;;;;;26.45;29.20;100149.30;106732;1267;137251;-75
2023/05/26 12:44:13;;;;;;;2.10;0.90;;;;;;;26.46;29.24;100139.61;106866;1272;138347;-73
2023/05/26 12:46:43;;;;;;;3.90;1.10;;;;;;;26.48;29.29;100138.16;106834;1270;25325;-74
2023/05/26 12:49:11;;;;;;;4.60;1.00;;;;;;;26.49;29.35;100133.21;106608;1273;139005;-72
2023/05/26 12:51:39;;;;;;;2.00;1.00;;;;;;;26.50;29.48;100129.85;106629;1261;23876;-76
2023/05/26 12:54:08;;;;;;;2.10;1.30;;;;;;;26.54;29.57;100126.23;106867;1269;138955;-78
2023/05/26 12:56:36;;;;;;;0.90;0.90;;;;;;;26.57;29.21;100131.16;106729;1264;140733;-73
2023/05/26 12:59:03;;;;;;;2.90;0.90;;;;;;;26.59;28.98;100130.06;106694;1270;23342;-73
2023/05/26 13:01:49;;;;;;;1.60;1.30;;;;;;;26.54;28.96;100131.21;106827;1267;137966;-75
2023/05/26 13:04:16;;;;;;;2.00;1.00;;;;;;;26.57;28.88;100122.85;106673;1272;137679;-71
2023/05/26 13:06:43;;;;;;;2.00;1.10;;;;;;;26.59;29.01;100122.12;106146;1269;25454;-70
2023/05/26 13:09:11;;;;;;;2.60;1.20;;;;;;;26.66;29.10;100120.98;106492;1270;137653;-72
2023/05/26 13:11:38;;;;;;;2.30;1.10;;;;;;;26.74;29.20;100114.71;106908;1268;23279;-73
2023/05/26 13:14:10;;;;;;;5.30;0.90;;;;;;;26.79;29.37;100123.42;106766;1270;137689;-67
2023/05/26 13:16:39;;;;;;;2.10;1.00;;;;;;;26.84;29.22;100130.49;106686;1267;137851;-71
2023/05/26 13:19:05;;;;;;;0.40;0.40;;;;;;;26.79;29.25;100113.08;106009;1270;25488;-71
2023/05/26 13:21:32;;;;;;;1.50;1.00;;;;;;;26.85;29.23;100128.00;106685;1265;139121;-73
2023/05/26 13:23:59;;;;;;;2.10;0.90;;;;;;;26.85;29.15;100128.16;106701;1272;23781;-71
2023/05/26 13:26:26;;;;;;;1.70;0.80;;;;;;;26.83;29.05;100122.15;106124;1270;138889;-71
2023/05/26 13:28:54;;;;;;;1.00;0.80;;;;;;;26.77;29.11;100120.05;105881;1269;142021;-75
2023/05/26 13:31:23;;;;;;;4.60;1.10;;;;;;;26.72;29.26;100116.48;106042;1268;22661;-71
2023/05/26 13:33:51;;;;;;;1.80;1.00;;;;;;;26.70;29.46;100121.62;106122;1269;139006;-72
2023/05/26 13:36:18;;;;;;;1.70;1.00;;;;;;;26.71;29.49;100122.48;106956;1268;138459;-70
2023/05/26 13:38:45;;;;;;;1.60;0.90;;;;;;;26.72;29.18;100129.27;106195;1269;22624;-71
2023/05/26 13:41:12;;;;;;;1.90;0.70;;;;;;;26.70;28.78;100127.14;106341;1268;137278;-70
2023/05/26 13:43:39;;;;;;;2.20;1.10;;;;;;;26.68;28.66;100131.71;106600;1270;25336;-71
2023/05/26 13:46:06;;;;;;;0.50;0.50;;;;;;;26.67;28.25;100118.45;106622;1271;138579;-70
2023/05/26 13:48:34;;;;;;;0.90;0.50;;;;;;;26.67;28.21;100116.42;106213;1271;137757;-74
2023/05/26 13:51:01;;;;;;;1.10;0.70;;;;;;;26.67;28.25;100113.46;106439;1271;25477;-72
2023/05/26 13:53:28;;;;;;;1.70;0.60;;;;;;;26.73;27.88;100119.16;107130;1271;139141;-72
2023/05/26 13:55:55;;;;;;;2.00;1.00;;;;;;;26.68;27.97;100111.15;106934;1268;24703;-75
2023/05/26 13:58:21;;;;;;;1.00;0.60;;;;;;;26.72;27.97;100118.13;106782;1264;138541;-72
2023/05/26 14:00:48;;;;;;;4.60;1.00;;;;;;;26.71;27.82;100113.12;106719;1273;138613;-70
2023/05/26 14:03:14;;;;;;;2.10;0.60;;;;;;;26.70;27.83;100112.38;106037;1269;23731;-69
2023/05/26 14:05:41;;;;;;;1.00;0.90;;;;;;;26.69;27.89;100107.30;106014;1267;137674;-72
2023/05/26 14:08:08;;;;;;;1.60;0.70;;;;;;;26.69;27.92;100102.01;106214;1270;138137;-70
2023/05/26 14:10:36;;;;;;;1.60;0.50;;;;;;;26.71;27.60;100104.31;106146;1269;22693;-72
2023/05/26 14:13:03;;;;;;;2.90;0.70;;;;;;;26.72;27.42;100111.54;106067;1268;137482;-72
2023/05/26 14:15:30;;;;;;;1.70;0.30;;;;;;;26.71;27.61;100107.98;106255;1270;25325;-69
2023/05/26 14:17:57;;;;;;;1.00;0.50;;;;;;;26.71;27.64;100101.64;105895;1270;140921;-70
2023/05/26 14:20:26;;;;;;;2.50;0.60;;;;;;;26.72;27.67;100104.73;105862;1271;142011;-71
2023/05/26 14:23:13;;;;;;;2.20;0.80;;;;;;;26.74;27.45;100098.86;106159;1270;24496;-70
2023/05/26 14:25:40;;;;;;;1.00;0.60;;;;;;;26.75;27.57;100097.09;106283;1268;139162;-71
2023/05/26 14:28:07;;;;;;;1.10;0.60;;;;;;;26.77;27.50;100099.95;106187;1270;137494;-71
2023/05/26 14:30:34;;;;;;;1.20;0.70;;;;;;;26.81;27.33;100095.34;106202;1271;22877;-71
2023/05/26 14:33:03;;;;;;;2.50;0.40;;;;;;;26.86;27.19;100101.25;106074;1268;138419;-72
2023/05/26 14:35:30;;;;;;;0.60;0.60;;;;;;;26.90;27.05;100103.69;107172;1271;23473;-74
2023/05/26 14:37:57;;;;;;;1.00;0.60;;;;;;;26.93;27.01;100098.70;107122;1268;137450;-76
2023/05/26 14:40:23;;;;;;;3.80;0.70;;;;;;;26.97;26.89;100093.50;107030;1267;138820;-73
2023/05/26 14:42:51;;;;;;;2.70;0.90;;;;;;;26.94;26.82;100080.41;107052;1265;23933;-76
2023/05/26 14:45:18;;;;;;;0.80;0.60;;;;;;;27.05;26.79;100087.80;106861;1272;136989;-75
2023/05/26 14:47:45;;;;;;;0.70;0.70;;;;;;;27.10;26.83;100091.10;107069;1272;22623;-73
2023/05/26 14:50:11;;;;;;;1.10;0.90;;;;;;;27.12;27.13;100088.09;106936;1272;138608;-72
2023/05/26 14:52:38;;;;;;;2.00;0.90;;;;;;;27.11;27.43;100087.25;106920;1269;139691;-71
2023/05/26 14:55:07;;;;;;;2.10;1.40;;;;;;;27.06;27.58;100089.70;105951;1270;25486;-71
2023/05/26 14:57:34;;;;;;;0.80;0.60;;;;;;;26.99;27.61;100087.64;106125;1271;138009;-73
2023/05/26 15:00:02;;;;;;;1.60;0.80;;;;;;;26.94;27.93;100087.74;106017;1264;24054;-70
2023/05/26 15:02:29;;;;;;;3.00;0.80;;;;;;;26.90;27.93;100088.70;107068;1273;22603;-76
2023/05/26 15:04:56;;;;;;;1.30;0.90;;;;;;;26.90;27.69;100090.67;106883;1271;137999;-73
2023/05/26 15:07:23;;;;;;;1.60;0.60;;;;;;;26.91;27.36;100092.55;106643;1271;24219;-80
2023/05/26 15:09:49;;;;;;;2.40;1.00;;;;;;;26.91;27.31;100088.89;106759;1264;138043;-81
2023/05/26 15:12:17;;;;;;;3.90;0.80;;;;;;;26.93;27.46;100089.85;106880;1267;138338;-79
2023/05/26 15:14:44;;;;;;;1.80;0.70;;;;;;;26.96;27.15;100096.90;107038;1271;23014;-78
2023/05/26 15:17:11;;;;;;;1.40;0.60;;;;;;;26.88;26.82;100080.30;107035;1264;137755;-81
2023/05/26 15:19:38;;;;;;;1.50;0.50;;;;;;;26.89;26.69;100075.64;107111;1265;25301;-78
2023/05/26 15:22:05;;;;;;;3.50;0.80;;;;;;;26.98;26.93;100092.73;106684;1268;138356;-78
2023/05/26 15:24:33;;;;;;;0.80;0.50;;;;;;;26.98;26.85;100094.38;106945;1269;138354;-80
2023/05/26 15:27:00;;;;;;;0.70;0.70;;;;;;;26.95;27.02;100089.84;106918;1268;23375;-80
2023/05/26 15:29:26;;;;;;;0.50;0.50;;;;;;;26.93;27.09;100085.95;106923;1266;139193;-77
2023/05/26 15:31:53;;;;;;;3.00;0.70;;;;;;;26.92;27.25;100085.88;106804;1275;25348;-79
2023/05/26 15:34:20;;;;;;;2.60;1.00;;;;;;;26.88;27.33;100073.04;106826;1268;137069;-80
2023/05/26 15:36:49;;;;;;;1.50;1.00;;;;;;;26.93;27.47;100083.98;106840;1271;138189;-81
2023/05/26 15:39:17;;;;;;;2.80;1.10;;;;;;;26.97;27.67;100088.13;106892;1270;23290;-77
2023/05/26 15:41:44;;;;;;;1.80;1.10;;;;;;;27.01;27.73;100091.59;107235;1268;137249;-79
2023/05/26 15:44:11;;;;;;;1.50;0.70;;;;;;;27.04;27.88;100090.13;106748;1270;138309;-77
2023/05/26 15:46:38;;;;;;;0.70;0.70;;;;;;;27.03;28.14;100085.39;107067;1270;23459;-77
2023/05/26 15:49:11;;;;;;;1.20;0.70;;;;;;;26.99;28.20;100087.86;107031;1270;137381;-77
2023/05/26 15:51:37;;;;;;;1.90;1.30;;;;;;;26.97;28.12;100104.09;107089;1263;22596;-78
2023/05/26 15:54:05;;;;;;;2.40;1.00;;;;;;;26.97;29.69;100107.77;107264;1267;137496;-74
2023/05/26 15:56:32;;;;;;;2.10;0.70;;;;;;;26.95;32.34;100113.65;106935;1264;137812;-77
2023/05/26 15:58:58;;;;;;;10.80;1.10;;;;;;;26.87;34.08;100124.91;107191;1262;25472;-76
2023/05/26 16:01:25;;;;;;;3.80;1.50;;;;;;;26.75;34.94;100116.55;107043;1265;139921;-76
2023/05/26 16:03:54;;;;;;;3.60;1.20;;;;;;;26.63;35.78;100125.61;107441;1269;25389;-78
2023/05/26 16:06:21;;;;;;;2.50;1.90;;;;;;;26.50;36.32;100132.01;109843;1270;137351;-79
2023/05/26 16:08:48;;;;;;;1.90;0.80;;;;;;;26.37;36.77;100138.98;109356;1262;138487;-77
2023/05/26 16:11:16;;;;;;;1.10;0.80;;;;;;;26.26;37.15;100139.02;107584;1265;22517;-77
2023/05/26 16:13:43;;;;;;;2.50;1.30;;;;;;;26.09;37.60;100135.95;107625;1270;138515;-79
2023/05/26 16:16:10;;;;;;;1.00;0.90;;;;;;;26.03;38.36;100153.80;107365;1269;139393;-80
2023/05/26 16:18:38;;;;;;;1.60;1.10;;;;;;;25.90;39.60;100160.90;107421;1270;22831;-78
2023/05/26 16:21:05;;;;;;;1.10;0.90;;;;;;;25.74;40.39;100160.52;107037;1270;137886;-78
2023/05/26 16:23:32;;;;;;;1.70;1.10;;;;;;;25.56;41.20;100163.48;107212;1271;23725;-76
2023/05/26 16:26:00;;;;;;;2.30;1.50;;;;;;;25.36;42.22;100164.11;106729;1269;137504;-78
2023/05/26 16:28:28;;;;;;;2.40;1.40;;;;;;;25.16;43.05;100163.29;106994;1272;138505;-80
2023/05/26 16:30:55;;;;;;;1.80;1.00;;;;;;;24.96;43.55;100158.41;107039;1270;22617;-78
2023/05/26 16:33:22;;;;;;;1.20;1.10;;;;;;;24.81;44.27;100155.67;107209;1271;139134;-76
2023/05/26 16:35:50;;;;;;;5.20;1.60;;;;;;;24.71;44.79;100154.03;106759;1272;22599;-79
2023/05/26 16:38:20;;;;;;;1.90;1.20;;;;;;;24.63;45.38;100149.03;106597;1268;138558;-80
2023/05/26 16:40:47;;;;;;;1.60;1.40;;;;;;;24.59;45.75;100155.45;106645;1274;139216;-80
2023/05/26 16:43:13;;;;;;;0.90;0.80;;;;;;;24.55;45.76;100161.86;106897;1260;25264;-81
2023/05/26 16:45:49;;;;;;;2.60;1.80;;;;;;;24.52;45.46;100157.30;106641;1275;139385;-79
2023/05/26 16:48:16;;;;;;;3.00;1.20;;;;;;;24.51;45.74;100157.31;106771;1269;138921;-79
2023/05/26 16:50:43;;;;;;;1.30;1.30;;;;;;;24.49;46.60;100153.88;106807;1270;22670;-78
2023/05/26 16:53:10;;;;;;;4.80;1.20;;;;;;;24.46;47.05;100152.11;106859;1271;138442;-79
2023/05/26 16:55:37;;;;;;;3.60;2.00;;;;;;;24.42;47.20;100152.19;106614;1271;22527;-79
2023/05/26 16:58:05;;;;;;;2.10;1.10;;;;;;;24.41;47.23;100157.16;106714;1270;138133;-79
2023/05/26 17:00:32;;;;;;;0.90;0.90;;;;;;;24.40;47.49;100155.48;106700;1271;137960;-78
2023/05/26 17:02:59;;;;;;;2.80;1.60;;;;;;;24.39;47.53;100162.86;106904;1269;23868;-79
2023/05/26 17:05:26;;;;;;;2.40;2.00;;;;;;;24.36;47.66;100162.77;106776;1275;138080;-80
2023/05/26 17:07:53;;;;;;;3.30;1.10;;;;;;;24.32;47.59;100162.95;106839;1270;22594;-79
2023/05/26 17:10:20;;;;;;;3.50;1.50;;;;;;;24.30;47.76;100164.83;106806;1270;137737;-78
2023/05/26 17:12:47;;;;;;;2.30;1.70;;;;;;;24.29;47.99;100165.69;107119;1271;138145;-80
2023/05/26 17:15:15;;;;;;;1.80;1.70;;;;;;;24.29;47.83;100169.88;107192;1268;23206;-79
2023/05/26 17:17:42;;;;;;;2.00;1.80;;;;;;;24.29;47.70;100169.83;106915;1268;137750;-71
2023/05/26 17:20:09;;;;;;;1.40;1.30;;;;;;;24.28;47.93;100168.15;106872;1274;138372;-75
2023/05/26 17:22:39;;;;;;;2.70;2.10;;;;;;;24.26;48.12;100171.44;106870;1270;23447;-78
2023/05/26 17:25:06;;;;;;;2.20;2.00;;;;;;;24.23;48.40;100174.52;106728;1272;138707;-70
2023/05/26 17:27:33;;;;;;;3.70;2.20;;;;;;;24.20;48.16;100174.95;106740;1269;24362;-73
2023/05/26 17:30:00;;;;;;;3.10;2.10;;;;;;;24.18;48.43;100176.02;106682;1272;137902;-78
2023/05/26 17:32:27;;;;;;;3.90;1.80;;;;;;;24.14;48.67;100174.57;106854;1271;137880;-87
2023/05/26 17:34:54;;;;;;;1.70;1.40;;;;;;;24.08;48.56;100175.55;106850;1270;25554;-77
2023/05/26 17:37:21;;;;;;;1.70;1.50;;;;;;;24.02;48.54;100181.57;106732;1272;138935;-77
2023/05/26 17:39:48;;;;;;;2.00;1.70;;;;;;;23.98;48.65;100182.58;107518;1274;24048;-79
2023/05/26 17:42:16;;;;;;;3.80;2.00;;;;;;;23.94;48.68;100183.47;107122;1271;137198;-80
2023/05/26 17:44:42;;;;;;;2.30;2.10;;;;;;;23.89;48.72;100180.56;107378;1262;138422;-80
2023/05/26 17:47:09;;;;;;;2.00;1.70;;;;;;;23.86;48.77;100185.68;106970;1272;22584;-75
2023/05/26 17:49:37;;;;;;;2.80;1.60;;;;;;;23.84;49.04;100184.02;106890;1262;137713;-78
2023/05/26 17:52:04;;;;;;;5.00;1.90;;;;;;;23.80;49.09;100185.55;107136;1272;138272;-73
2023/05/26 17:54:33;;;;;;;5.50;1.60;;;;;;;23.76;49.13;100188.96;106722;1271;25947;-78
2023/05/26 17:57:01;;;;;;;1.70;1.60;;;;;;;23.74;49.36;100187.73;106631;1271;137769;-81
2023/05/26 17:59:29;;;;;;;1.30;1.20;;;;;;;23.71;49.49;100193.02;106918;1272;22948;-76
2023/05/26 18:01:56;;;;;;;1.60;1.50;;;;;;;23.68;49.47;100195.77;106770;1272;139685;-72
2023/05/26 18:04:23;;;;;;;1.80;1.70;;;;;;;23.64;49.89;100196.70;106566;1266;139409;-75
2023/05/26 18:06:50;;;;;;;2.80;2.10;;;;;;;23.60;50.18;100190.58;106614;1271;25558;-75
2023/05/26 18:09:17;;;;;;;2.70;1.90;;;;;;;23.55;50.10;100194.02;106646;1275;139399;-75
2023/05/26 18:11:44;;;;;;;2.20;1.70;;;;;;;23.49;50.36;100197.57;106740;1271;24231;-77
2023/05/26 18:14:11;;;;;;;3.90;2.20;;;;;;;23.46;50.41;100199.77;106584;1274;138537;-74
2023/05/26 18:16:38;;;;;;;4.90;2.30;;;;;;;23.37;50.55;100196.58;106757;1268;138193;-75
2023/05/26 18:19:05;;;;;;;3.10;1.80;;;;;;;23.38;50.74;100201.20;106854;1273;22681;-74
2023/05/26 18:21:32;;;;;;;2.60;2.40;;;;;;;23.33;50.83;100207.80;106708;1274;139263;-75
2023/05/26 18:23:59;;;;;;;2.00;1.90;;;;;;;23.29;50.71;100212.23;106714;1275;25491;-76
2023/05/26 18:26:26;;;;;;;4.90;1.90;;;;;;;23.22;51.10;100215.93;107105;1275;137464;-76
2023/05/26 18:28:54;;;;;;;2.20;1.90;;;;;;;23.15;51.48;100219.05;106525;1269;138062;-76
2023/05/26 18:31:21;;;;;;;2.80;2.20;;;;;;;23.08;51.55;100221.08;106691;1271;25354;-75
2023/05/26 18:33:48;;;;;;;4.30;1.90;;;;;;;23.02;51.80;100218.77;106796;1262;140171;-74
2023/05/26 18:36:15;;;;;;;2.50;2.10;;;;;;;22.97;52.32;100215.52;106643;1271;138635;-76
2023/05/26 18:38:42;;;;;;;3.20;2.20;;;;;;;22.93;52.97;100215.04;106851;1270;22747;-75
2023/05/26 18:41:08;;;;;;;4.90;2.40;;;;;;;22.84;54.73;100223.69;106859;1269;137833;-78
2023/05/26 18:43:35;;;;;;;2.70;2.10;;;;;;;22.69;56.54;100225.10;107079;1271;22772;-75
2023/05/26 18:46:01;;;;;;;3.10;2.30;;;;;;;22.56;57.06;100224.34;106854;1259;138160;-78
2023/05/26 18:48:29;;;;;;;4.70;1.70;;;;;;;22.47;57.66;100226.45;106987;1268;139661;-75
2023/05/26 18:50:57;;;;;;;5.20;2.10;;;;;;;22.37;58.16;100226.77;107034;1272;22525;-78
2023/05/26 18:53:24;;;;;;;4.10;2.50;;;;;;;22.31;58.36;100225.95;106934;1272;137887;-75
2023/05/26 18:55:50;;;;;;;3.00;2.30;;;;;;;22.27;58.53;100221.91;107142;1274;23879;-74
2023/05/26 18:58:17;;;;;;;2.70;2.40;;;;;;;22.24;58.90;100224.76;106869;1271;137906;-74
2023/05/26 19:00:44;;;;;;;3.80;2.80;;;;;;;22.20;58.91;100221.05;106993;1266;139111;-76
2023/05/26 19:03:11;;;;;;;4.00;2.50;;;;;;;22.19;58.98;100220.02;106804;1275;24463;-72
2023/05/26 19:05:38;;;;;;;4.50;2.90;;;;;;;22.18;58.94;100219.80;106250;1271;138019;-78
2023/05/26 19:08:06;;;;;;;3.80;3.50;;;;;;;22.16;59.06;100217.90;106359;1269;138635;-78
2023/05/26 19:10:33;;;;;;;2.90;2.70;;;;;;;22.14;59.28;100218.70;106773;1267;23812;-76
2023/05/26 19:13:00;;;;;;;2.60;2.50;;;;;;;22.09;59.56;100222.17;106557;1271;137844;-74
2023/05/26 19:15:27;;;;;;;5.50;3.10;;;;;;;21.93;60.74;100214.64;106302;1272;22549;-77
2023/05/26 19:17:54;;;;;;;3.00;2.70;;;;;;;21.77;61.56;100219.48;106123;1269;140127;-83
2023/05/26 19:20:21;;;;;;;3.10;2.90;;;;;;;21.73;62.27;100224.77;106104;1265;138210;-70
2023/05/26 19:22:48;;;;;;;5.50;3.40;;;;;;;21.69;62.37;100222.90;106179;1260;25482;-72
2023/05/26 19:25:14;;;;;;;5.60;3.40;;;;;;;21.68;62.38;100223.45;106009;1272;139122;-75
2023/05/26 19:27:41;;;;;;;3.40;3.10;;;;;;;21.64;62.86;100220.34;106182;1271;25899;-75
2023/05/26 19:30:08;;;;;;;3.00;2.80;;;;;;;21.59;63.16;100220.04;106058;1269;139821;-70
2023/05/26 19:32:36;;;;;;;2.90;2.60;;;;;;;21.54;63.21;100219.53;106291;1271;140037;-83
2023/05/26 19:35:04;;;;;;;4.20;3.60;;;;;;;21.50;63.53;100220.38;107494;1279;25949;-79
2023/05/26 19:37:34;;;;;;;3.60;3.30;;;;;;;21.46;63.82;100223.61;106262;1276;136957;-83
2023/05/26 19:40:01;;;;;;;4.60;3.20;;;;;;;21.41;64.03;100226.33;106626;1264;22546;-81
2023/05/26 19:42:27;;;;;;;9.80;3.20;;;;;;;21.37;64.33;100227.05;106175;1272;137621;-82
2023/05/26 19:44:54;;;;;;;3.70;3.40;;;;;;;21.33;65.00;100228.50;106393;1271;139143;-84
2023/05/26 19:47:20;;;;;;;3.30;3.00;;;;;;;21.25;65.07;100223.09;106410;1273;22533;-78
2023/05/26 19:49:47;;;;;;;5.50;3.70;;;;;;;21.23;65.36;100219.01;106247;1278;137487;-76
2023/05/26 19:52:13;;;;;;;6.10;3.00;;;;;;;21.20;65.43;100216.82;106087;1272;138114;-75
2023/05/26 19:54:40;;;;;;;7.80;7.10;;;;;;;21.19;66.01;100217.42;106330;1270;25485;-78
2023/05/26 19:57:07;;;;;;;5.90;5.40;;;;;;;21.15;66.85;100216.25;106117;1269;137749;-76
2023/05/26 19:59:33;;;;;;;7.10;6.60;;;;;;;21.05;67.45;100215.59;106446;1269;25320;-79
2023/05/26 20:02:00;;;;;;;7.30;6.70;;;;;;;20.94;68.36;100219.04;106357;1272;138218;-77
2023/05/26 20:04:27;;;;;;;4.40;4.00;;;;;;;20.86;68.88;100221.48;106388;1270;138284;-77
2023/05/26 20:06:53;;;;;;;5.80;3.30;;;;;;;20.76;69.42;100221.13;106428;1269;25404;-78
2023/05/26 20:09:20;;;;;;;6.10;3.20;;;;;;;20.71;69.83;100226.12;106671;1269;138567;-79
2023/05/26 20:11:46;;;;;;;3.60;3.30;;;;;;;20.69;70.21;100223.45;106678;1269;25412;-78
2023/05/26 20:14:13;;;;;;;4.80;3.70;;;;;;;20.66;70.47;100227.65;106307;1272;138264;-74
2023/05/26 20:16:41;;;;;;;3.30;3.10;;;;;;;20.62;70.94;100226.70;106220;1275;138258;-70
2023/05/26 20:19:08;;;;;;;7.00;3.20;;;;;;;20.56;71.44;100223.81;106543;1269;25854;-74
2023/05/26 20:21:35;;;;;;;4.00;3.70;;;;;;;20.51;71.68;100220.88;106764;1272;137897;-79
2023/05/26 20:24:02;;;;;;;6.70;3.90;;;;;;;20.44;72.24;100216.86;106569;1278;24171;-76
2023/05/26 20:26:29;;;;;;;5.90;3.90;;;;;;;20.35;72.84;100218.84;106813;1273;22668;-79
2023/05/26 20:28:55;;;;;;;3.30;3.10;;;;;;;20.28;73.38;100216.98;106680;1272;139340;-78
2023/05/26 20:31:23;;;;;;;7.50;4.10;;;;;;;20.23;73.71;100219.05;106811;1272;24224;-81
2023/05/26 20:33:52;;;;;;;7.70;3.70;;;;;;;20.18;73.91;100216.18;106525;1269;138325;-79
2023/05/26 20:36:20;;;;;;;3.20;2.90;;;;;;;20.16;74.23;100217.63;107222;1268;138967;-81
2023/05/26 20:38:51;;;;;;;5.80;4.30;;;;;;;20.14;74.87;100213.22;106804;1269;22587;-80
2023/05/26 20:41:19;;;;;;;3.00;2.80;;;;;;;20.12;75.27;100212.29;106887;1275;138019;-82
2023/05/26 20:43:47;;;;;;;4.30;4.00;;;;;;;20.09;75.70;100214.41;106786;1280;22544;-79